createdAt,value
2023-02-14T00:00:29.749Z,30.48
2023-02-14T00:02:57.212Z,29.50
2023-02-14T00:05:24.280Z,30.30
2023-02-14T00:07:51.443Z,29.38
2023-02-14T00:10:20.149Z,31.52
2023-02-14T00:12:47.042Z,32.53
2023-02-14T00:15:23.384Z,32.33
2023-02-14T00:17:50.507Z,32.67
2023-02-14T00:20:17.929Z,31.02
2023-02-14T00:22:45.197Z,31.73
2023-02-14T00:25:12.136Z,32.28
2023-02-14T00:27:40.546Z,32.58
2023-02-14T00:30:08.963Z,32.05
2023-02-14T00:32:38.867Z,33.15
2023-02-14T00:35:06.627Z,35.35
2023-02-14T00:37:33.741Z,32.85
2023-02-14T00:40:00.663Z,32.85
2023-02-14T00:42:27.661Z,34.72
2023-02-14T00:44:56.139Z,34.78
2023-02-14T00:47:23.079Z,33.58
2023-02-14T00:49:51.974Z,31.85
2023-02-14T00:52:18.905Z,34.63
2023-02-14T00:54:45.941Z,35.00
2023-02-14T00:57:14.313Z,32.50
2023-02-14T00:59:41.215Z,32.72
2023-02-14T01:02:09.539Z,33.47
2023-02-14T01:04:36.638Z,32.67
2023-02-14T01:07:03.647Z,32.83
2023-02-14T01:09:30.632Z,31.63
2023-02-14T01:11:57.558Z,32.25
2023-02-14T01:14:24.494Z,34.15
2023-02-14T01:16:51.508Z,35.58
2023-02-14T01:19:20.003Z,35.95
2023-02-14T01:21:46.925Z,35.88
2023-02-14T01:24:15.155Z,32.63
2023-02-14T01:26:43.215Z,34.13
2023-02-14T01:29:10.409Z,34.35
2023-02-14T01:31:38.126Z,33.40
2023-02-14T01:34:05.278Z,32.90
2023-02-14T01:36:36.416Z,32.30
2023-02-14T01:39:06.588Z,33.20
2023-02-14T01:41:35.818Z,34.50
2023-02-14T01:44:08.204Z,37.75
2023-02-14T01:46:37.595Z,33.38
2023-02-14T01:49:09.478Z,34.30
2023-02-14T01:51:43.911Z,31.88
2023-02-14T01:54:11.632Z,35.30
2023-02-14T01:56:43.691Z,34.17
2023-02-14T01:59:16.722Z,31.85
2023-02-14T02:01:45.110Z,30.10
2023-02-14T02:04:17.612Z,29.58
2023-02-14T02:06:49.465Z,29.58
2023-02-14T02:09:21.248Z,29.60
2023-02-14T02:11:48.357Z,29.42
2023-02-14T02:14:18.567Z,28.33
2023-02-14T02:17:00.586Z,29.25
2023-02-14T02:20:23.015Z,29.02
2023-02-14T02:23:23.046Z,31.60
2023-02-14T02:26:27.765Z,30.30
2023-02-14T02:29:25.697Z,29.13
2023-02-14T02:32:34.688Z,29.30
2023-02-14T02:35:21.023Z,31.90
2023-02-14T02:38:00.435Z,29.70
2023-02-14T02:40:36.145Z,28.25
2023-02-14T02:43:13.833Z,27.70
2023-02-14T02:46:06.518Z,26.25
2023-02-14T02:48:43.200Z,27.77
2023-02-14T02:54:05.819Z,24.60
2023-02-14T02:56:46.727Z,26.85
2023-02-14T02:59:19.136Z,26.70
2023-02-14T03:01:56.934Z,25.52
2023-02-14T03:04:45.570Z,26.23
2023-02-14T03:07:32.861Z,27.20
2023-02-14T03:10:01.798Z,25.92
2023-02-14T03:13:06.127Z,25.92
2023-02-14T03:15:44.784Z,24.60
2023-02-14T03:18:42.112Z,24.77
2023-02-14T03:21:20.945Z,26.23
2023-02-14T03:23:54.585Z,25.30
2023-02-14T03:26:28.562Z,26.85
2023-02-14T03:29:02.106Z,25.05
2023-02-14T03:31:34.159Z,26.55
2023-02-14T03:34:10.756Z,25.95
2023-02-14T03:36:41.768Z,25.07
2023-02-14T03:39:16.272Z,29.95
2023-02-14T03:41:49.440Z,55.07
2023-02-14T03:44:21.129Z,27.65
2023-02-14T03:46:53.440Z,30.52
2023-02-14T03:49:23.841Z,34.63
2023-02-14T03:51:55.046Z,27.55
2023-02-14T03:54:25.762Z,28.08
2023-02-14T03:56:57.794Z,25.88
2023-02-14T03:59:27.513Z,26.30
2023-02-14T04:01:59.848Z,26.25
2023-02-14T04:04:30.983Z,31.77
2023-02-14T04:06:57.972Z,24.10
2023-02-14T04:09:26.352Z,24.77
2023-02-14T04:11:53.825Z,24.17
2023-02-14T04:14:20.752Z,24.23
2023-02-14T04:17:06.254Z,23.05
2023-02-14T04:19:33.558Z,23.88
2023-02-14T04:22:00.476Z,24.67
2023-02-14T04:24:28.949Z,28.25
2023-02-14T04:27:12.260Z,31.15
2023-02-14T04:29:40.934Z,29.08
2023-02-14T04:32:10.043Z,30.15
2023-02-14T04:34:37.835Z,30.00
2023-02-14T04:37:05.522Z,26.83
2023-02-14T04:39:34.571Z,28.35
2023-02-14T04:42:01.509Z,26.15
2023-02-14T04:44:28.769Z,24.80
2023-02-14T04:46:56.307Z,27.83
2023-02-14T04:49:23.283Z,26.88
2023-02-14T04:51:50.217Z,24.52
2023-02-14T04:54:17.249Z,25.33
2023-02-14T04:56:45.544Z,25.67
2023-02-14T04:59:14.556Z,25.30
2023-02-14T05:01:41.516Z,25.60
2023-02-14T05:04:08.674Z,25.42
2023-02-14T05:06:35.596Z,24.92
2023-02-14T05:09:03.243Z,25.00
2023-02-14T05:11:30.872Z,23.98
2023-02-14T05:13:59.275Z,22.85
2023-02-14T05:16:26.359Z,24.25
2023-02-14T05:18:53.378Z,24.77
2023-02-14T05:21:20.271Z,23.92
2023-02-14T05:23:47.254Z,24.13
2023-02-14T05:26:14.521Z,25.60
2023-02-14T05:28:42.596Z,25.55
2023-02-14T05:31:11.048Z,25.40
2023-02-14T05:33:38.083Z,24.58
2023-02-14T05:36:05.525Z,23.75
2023-02-14T05:38:33.897Z,24.70
2023-02-14T05:41:01.234Z,26.45
2023-02-14T05:43:30.293Z,25.45
2023-02-14T05:45:57.482Z,23.65
2023-02-14T05:48:25.830Z,43.45
2023-02-14T05:50:52.793Z,28.17
2023-02-14T05:53:19.874Z,26.38
2023-02-14T05:55:47.235Z,24.15
2023-02-14T05:58:14.269Z,23.90
2023-02-14T06:00:41.623Z,23.65
2023-02-14T06:03:09.017Z,25.63
2023-02-14T06:05:37.322Z,25.13
2023-02-14T06:08:04.363Z,24.13
2023-02-14T06:10:31.538Z,25.02
2023-02-14T06:12:58.464Z,26.00
2023-02-14T06:15:25.359Z,24.60
2023-02-14T06:17:53.066Z,24.05
2023-02-14T06:20:20.956Z,24.92
2023-02-14T06:22:49.310Z,24.73
2023-02-14T06:25:16.683Z,23.98
2023-02-14T06:27:43.757Z,25.48
2023-02-14T06:30:15.497Z,25.77
2023-02-14T06:32:42.556Z,23.95
2023-02-14T06:35:10.091Z,24.63
2023-02-14T06:37:38.826Z,25.60
2023-02-14T06:40:09.030Z,24.88
2023-02-14T06:42:36.209Z,24.85
2023-02-14T06:45:03.998Z,21.70
2023-02-14T06:47:31.814Z,22.67
2023-02-14T06:50:04.854Z,26.38
2023-02-14T06:52:32.006Z,24.23
2023-02-14T06:54:59.217Z,26.20
2023-02-14T06:57:27.570Z,26.13
2023-02-14T06:59:57.741Z,26.75
2023-02-14T07:02:25.204Z,24.95
2023-02-14T07:04:52.411Z,25.27
2023-02-14T07:07:19.437Z,25.38
2023-02-14T07:09:46.590Z,24.73
2023-02-14T07:12:13.517Z,25.98
2023-02-14T07:14:42.035Z,24.35
2023-02-14T07:17:08.922Z,23.48
2023-02-14T07:19:38.678Z,22.88
2023-02-14T07:22:05.863Z,21.80
2023-02-14T07:24:32.747Z,21.00
2023-02-14T07:26:59.645Z,21.80
2023-02-14T07:29:26.724Z,21.90
2023-02-14T07:31:55.126Z,21.35
2023-02-14T07:34:22.578Z,22.70
2023-02-14T07:36:49.486Z,22.38
2023-02-14T07:39:16.393Z,21.73
2023-02-14T07:41:43.283Z,22.38
2023-02-14T07:44:11.163Z,23.40
2023-02-14T07:46:38.363Z,20.75
2023-02-14T07:49:06.728Z,22.27
2023-02-14T07:51:34.014Z,20.77
2023-02-14T07:54:01.031Z,22.02
2023-02-14T07:56:28.097Z,20.85
2023-02-14T07:58:55.039Z,21.02
2023-02-14T08:01:22.028Z,20.98
2023-02-14T08:03:49.697Z,19.77
2023-02-14T08:06:18.707Z,20.73
2023-02-14T08:08:46.105Z,20.52
2023-02-14T08:11:33.374Z,20.50
2023-02-14T08:14:00.309Z,21.08
2023-02-14T08:16:27.378Z,20.40
2023-02-14T08:18:54.345Z,20.52
2023-02-14T08:21:22.714Z,19.83
2023-02-14T08:23:49.614Z,20.50
2023-02-14T08:26:17.340Z,19.27
2023-02-14T08:28:44.535Z,19.48
2023-02-14T08:31:11.656Z,19.85
2023-02-14T08:33:38.811Z,19.00
2023-02-14T08:36:06.405Z,20.25
2023-02-14T08:38:34.827Z,19.20
2023-02-14T08:41:05.054Z,18.25
2023-02-14T08:43:34.466Z,19.67
2023-02-14T08:46:02.151Z,18.73
2023-02-14T08:48:29.553Z,19.33
2023-02-14T08:50:56.481Z,19.17
2023-02-14T08:53:24.194Z,19.05
2023-02-14T08:55:52.640Z,19.60
2023-02-14T08:58:19.979Z,19.20
2023-02-14T09:00:46.970Z,19.13
2023-02-14T09:03:14.072Z,19.45
2023-02-14T09:05:41.385Z,19.05
2023-02-14T09:08:08.330Z,20.55
2023-02-14T09:10:35.372Z,19.58
2023-02-14T09:13:03.824Z,19.25
2023-02-14T09:15:30.865Z,19.63
2023-02-14T09:17:57.812Z,19.52
2023-02-14T09:20:24.971Z,19.33
2023-02-14T09:22:54.841Z,19.40
2023-02-14T09:25:21.794Z,19.08
2023-02-14T09:27:48.733Z,19.27
2023-02-14T09:30:17.629Z,20.13
2023-02-14T09:32:44.910Z,19.30
2023-02-14T09:35:11.936Z,18.50
2023-02-14T09:37:57.391Z,19.95
2023-02-14T09:40:27.781Z,19.02
2023-02-14T09:43:07.350Z,18.95
2023-02-14T09:45:36.185Z,19.45
2023-02-14T09:48:08.125Z,19.42
2023-02-14T09:50:40.358Z,19.25
2023-02-14T09:53:18.631Z,19.33
2023-02-14T09:55:51.667Z,19.55
2023-02-14T09:58:23.132Z,19.80
2023-02-14T10:00:57.494Z,19.98
2023-02-14T10:03:40.806Z,21.10
2023-02-14T10:06:18.658Z,19.60
2023-02-14T10:08:55.871Z,20.70
2023-02-14T10:11:24.902Z,21.15
2023-02-14T10:13:55.084Z,19.65
2023-02-14T10:16:27.477Z,21.40
2023-02-14T10:18:58.310Z,20.20
2023-02-14T10:21:32.074Z,20.50
2023-02-14T10:24:04.370Z,20.48
2023-02-14T10:26:38.140Z,21.33
2023-02-14T10:29:08.836Z,20.83
2023-02-14T10:31:42.404Z,20.23
2023-02-14T10:34:17.069Z,21.40
2023-02-14T10:37:11.775Z,20.58
2023-02-14T10:39:58.308Z,20.08
2023-02-14T10:42:34.207Z,20.92
2023-02-14T10:45:13.066Z,21.35
2023-02-14T10:47:46.962Z,21.33
2023-02-14T10:50:21.049Z,21.73
2023-02-14T10:52:57.329Z,20.80
2023-02-14T10:55:33.230Z,21.38
2023-02-14T10:58:06.237Z,22.55
2023-02-14T11:00:35.343Z,23.17
2023-02-14T11:03:08.091Z,22.95
2023-02-14T11:05:38.200Z,23.10
2023-02-14T11:08:14.923Z,21.27
2023-02-14T11:10:42.193Z,22.80
2023-02-14T11:13:27.438Z,21.38
2023-02-14T11:15:58.621Z,21.23
2023-02-14T11:18:36.172Z,21.35
2023-02-14T11:21:06.780Z,21.13
2023-02-14T11:23:35.991Z,20.08
2023-02-14T11:26:05.625Z,20.88
2023-02-14T11:28:34.106Z,21.13
2023-02-14T11:31:01.818Z,20.85
2023-02-14T11:33:39.972Z,20.73
2023-02-14T11:36:12.565Z,21.02
2023-02-14T11:38:41.132Z,20.90
2023-02-14T11:41:11.257Z,21.45
2023-02-14T11:43:39.179Z,20.38
2023-02-14T11:46:16.167Z,20.88
2023-02-14T11:48:57.721Z,18.30
2023-02-14T11:51:30.987Z,18.35
2023-02-14T11:54:05.289Z,18.38
2023-02-14T11:56:51.559Z,19.55
2023-02-14T11:59:28.287Z,19.08
2023-02-14T12:01:57.980Z,18.88
2023-02-14T12:04:45.749Z,18.80
2023-02-14T12:07:26.626Z,18.73
2023-02-14T12:10:27.167Z,20.75
2023-02-14T12:13:00.587Z,18.65
2023-02-14T12:15:37.865Z,19.63
2023-02-14T12:18:39.564Z,19.30
2023-02-14T12:21:23.556Z,18.67
2023-02-14T12:24:00.264Z,19.30
2023-02-14T12:26:32.298Z,19.05
2023-02-14T12:29:09.758Z,20.58
2023-02-14T12:31:36.945Z,22.15
2023-02-14T12:34:04.809Z,23.52
2023-02-14T12:36:47.292Z,25.63
2023-02-14T12:39:22.446Z,23.58
2023-02-14T12:42:00.085Z,20.17
2023-02-14T12:44:41.826Z,21.67
2023-02-14T12:47:18.277Z,20.15
2023-02-14T12:50:03.085Z,19.40
2023-02-14T12:52:49.320Z,21.03
2023-02-14T12:55:32.359Z,21.98
2023-02-14T12:58:05.676Z,23.65
2023-02-14T13:00:40.059Z,24.27
2023-02-14T13:03:43.524Z,22.45
2023-02-14T13:06:17.634Z,22.15
2023-02-14T13:09:02.676Z,23.08
2023-02-14T13:11:39.711Z,22.47
2023-02-14T13:14:18.910Z,23.08
2023-02-14T13:16:51.520Z,23.08
2023-02-14T13:19:29.995Z,23.90
2023-02-14T13:21:59.831Z,21.23
2023-02-14T13:24:34.010Z,21.73
2023-02-14T13:27:05.805Z,22.27
2023-02-14T13:29:41.903Z,22.27
2023-02-14T13:32:12.716Z,22.70
2023-02-14T13:34:44.157Z,23.20
2023-02-14T13:37:13.947Z,24.05
2023-02-14T13:39:45.430Z,21.88
2023-02-14T13:42:12.808Z,23.05
2023-02-14T13:44:44.679Z,22.35
2023-02-14T13:47:21.889Z,22.83
2023-02-14T13:49:53.090Z,20.70
2023-02-14T13:52:40.811Z,21.73
2023-02-14T13:55:16.399Z,21.30
2023-02-14T13:57:43.514Z,20.15
2023-02-14T14:00:48.793Z,19.38
2023-02-14T14:03:56.421Z,19.95
2023-02-14T14:06:23.560Z,18.60
2023-02-14T14:08:54.359Z,19.98
2023-02-14T14:11:56.996Z,18.45
2023-02-14T14:14:36.587Z,18.77
2023-02-14T14:17:23.164Z,18.67
2023-02-14T14:19:50.621Z,19.27
2023-02-14T14:22:17.719Z,20.13
2023-02-14T14:24:56.519Z,19.77
2023-02-14T14:27:26.459Z,18.88
2023-02-14T14:29:56.836Z,55.95
2023-02-14T14:32:32.010Z,41.95
2023-02-14T14:35:01.162Z,21.35
2023-02-14T14:37:30.357Z,25.48
2023-02-14T14:39:59.077Z,18.90
2023-02-14T14:42:29.308Z,20.63
2023-02-14T14:45:00.261Z,22.40
2023-02-14T14:47:31.304Z,20.02
2023-02-14T14:50:00.082Z,19.63
2023-02-14T14:52:34.318Z,18.63
2023-02-14T14:55:04.302Z,17.10
2023-02-14T14:57:31.558Z,16.95
2023-02-14T15:00:18.071Z,16.85
2023-02-14T15:02:56.571Z,71.78
2023-02-14T15:05:26.194Z,27.38
2023-02-14T15:07:53.410Z,24.60
2023-02-14T15:10:22.224Z,20.30
2023-02-14T15:13:09.377Z,19.83
2023-02-14T15:15:37.821Z,19.50
2023-02-14T15:18:06.824Z,19.42
2023-02-14T15:20:35.279Z,18.33
2023-02-14T15:23:03.011Z,18.08
2023-02-14T15:25:34.073Z,19.17
2023-02-14T15:28:01.537Z,18.92
2023-02-14T15:30:34.051Z,19.20
2023-02-14T15:33:04.416Z,21.40
2023-02-14T15:35:33.304Z,22.10
2023-02-14T15:38:04.068Z,24.27
2023-02-14T15:40:33.629Z,28.48
2023-02-14T15:43:14.018Z,29.33
2023-02-14T15:45:42.755Z,18.30
2023-02-14T15:48:17.264Z,20.77
2023-02-14T15:50:46.775Z,17.87
2023-02-14T15:53:30.818Z,18.60
2023-02-14T15:56:04.763Z,17.45
2023-02-14T15:58:33.436Z,18.30
2023-02-14T16:01:00.813Z,17.48
2023-02-14T16:03:33.988Z,17.08
2023-02-14T16:06:00.942Z,17.02
2023-02-14T16:08:31.085Z,17.15
2023-02-14T16:11:03.884Z,16.58
2023-02-14T16:13:33.386Z,17.60
2023-02-14T16:16:02.183Z,15.75
2023-02-14T16:18:36.814Z,17.17
2023-02-14T16:21:16.390Z,16.45
2023-02-14T16:23:44.820Z,17.48
2023-02-14T16:26:12.086Z,17.50
2023-02-14T16:28:39.146Z,18.17
2023-02-14T16:31:11.343Z,17.35
2023-02-14T16:33:41.123Z,17.45
2023-02-14T16:36:15.929Z,19.33
2023-02-14T16:38:45.095Z,18.70
2023-02-14T16:41:17.037Z,19.65
2023-02-14T16:43:44.472Z,17.80
2023-02-14T16:46:13.653Z,17.15
2023-02-14T16:48:42.929Z,17.35
2023-02-14T16:51:13.833Z,26.63
2023-02-14T16:53:42.789Z,66.60
2023-02-14T16:56:15.404Z,63.20
2023-02-14T16:58:42.769Z,27.13
2023-02-14T17:01:09.804Z,20.25
2023-02-14T17:03:40.001Z,18.42
2023-02-14T17:06:13.050Z,17.70
2023-02-14T17:08:42.110Z,17.55
2023-02-14T17:11:10.530Z,17.33
2023-02-14T17:13:41.035Z,17.25
2023-02-14T17:16:11.754Z,16.80
2023-02-14T17:18:42.122Z,17.02
2023-02-14T17:21:10.508Z,18.50
2023-02-14T17:23:37.432Z,17.67
2023-02-14T17:26:06.088Z,18.55
2023-02-14T17:28:33.455Z,20.58
2023-02-14T17:31:01.085Z,19.73
2023-02-14T17:33:30.430Z,19.90
2023-02-14T17:36:03.775Z,20.25
2023-02-14T17:38:32.186Z,18.85
2023-02-14T17:40:59.555Z,19.63
2023-02-14T17:43:26.872Z,18.65
2023-02-14T17:45:55.807Z,19.48
2023-02-14T17:48:22.892Z,19.90
2023-02-14T17:50:49.896Z,17.92
2023-02-14T17:53:18.086Z,16.60
2023-02-14T17:55:46.438Z,16.85
2023-02-14T17:58:13.394Z,18.13
2023-02-14T18:00:40.569Z,16.73
2023-02-14T18:03:07.582Z,18.98
2023-02-14T18:05:36.496Z,19.67
2023-02-14T18:08:03.450Z,19.05
2023-02-14T18:10:30.383Z,18.98
2023-02-14T18:12:58.677Z,17.05
2023-02-14T18:15:27.431Z,16.77
2023-02-14T18:17:54.392Z,17.85
2023-02-14T18:20:21.320Z,18.00
2023-02-14T18:22:48.254Z,16.80
2023-02-14T18:25:15.290Z,18.30
2023-02-14T18:27:42.487Z,18.05
2023-02-14T18:30:11.671Z,19.08
2023-02-14T18:32:38.926Z,17.98
2023-02-14T18:35:06.479Z,19.10
2023-02-14T18:37:33.470Z,17.90
2023-02-14T18:40:00.520Z,18.20
2023-02-14T18:42:27.479Z,17.55
2023-02-14T18:44:54.537Z,27.98
2023-02-14T18:47:23.074Z,24.52
2023-02-14T18:49:50.017Z,26.45
2023-02-14T18:52:16.959Z,22.27
2023-02-14T18:54:43.865Z,21.08
2023-02-14T18:57:10.800Z,17.48
2023-02-14T18:59:37.667Z,23.75
2023-02-14T19:02:04.666Z,17.98
2023-02-14T19:04:32.983Z,18.00
2023-02-14T19:06:59.978Z,19.65
2023-02-14T19:09:28.605Z,18.00
2023-02-14T19:12:00.033Z,18.90
2023-02-14T19:14:27.900Z,17.20
2023-02-14T19:16:55.420Z,18.20
2023-02-14T19:19:23.295Z,17.15
2023-02-14T19:21:52.124Z,16.10
2023-02-14T19:24:20.083Z,16.52
2023-02-14T19:26:47.305Z,16.10
2023-02-14T19:29:15.966Z,15.40
2023-02-14T19:31:45.089Z,15.95
2023-02-14T19:34:16.597Z,16.38
2023-02-14T19:36:43.940Z,14.93
2023-02-14T19:39:12.775Z,15.00
2023-02-14T19:41:40.203Z,15.68
2023-02-14T19:44:09.429Z,14.63
2023-02-14T19:46:38.258Z,15.02
2023-02-14T19:49:05.539Z,16.10
2023-02-14T19:51:34.442Z,14.88
2023-02-14T19:54:05.353Z,15.95
2023-02-14T19:56:36.464Z,15.45
2023-02-14T19:59:07.801Z,16.73
2023-02-14T20:01:36.389Z,14.57
2023-02-14T20:04:04.315Z,15.55
2023-02-14T20:06:31.380Z,15.25
2023-02-14T20:08:58.275Z,15.68
2023-02-14T20:11:30.612Z,15.32
2023-02-14T20:13:59.530Z,17.02
2023-02-14T20:16:28.541Z,16.60
2023-02-14T20:18:55.795Z,15.93
2023-02-14T20:21:25.591Z,17.00
2023-02-14T20:23:52.561Z,16.30
2023-02-14T20:26:19.957Z,16.67
2023-02-14T20:28:48.820Z,17.65
2023-02-14T20:31:20.585Z,17.63
2023-02-14T20:33:50.470Z,22.58
2023-02-14T20:36:17.997Z,23.02
2023-02-14T20:38:45.486Z,18.92
2023-02-14T20:41:14.298Z,23.10
2023-02-14T20:43:41.313Z,21.02
2023-02-14T20:46:08.636Z,24.75
2023-02-14T20:48:37.125Z,21.75
2023-02-14T20:51:11.463Z,19.38
2023-02-14T20:53:38.862Z,26.33
2023-02-14T20:56:06.565Z,19.95
2023-02-14T20:58:34.631Z,19.25
2023-02-14T21:01:07.149Z,20.40
2023-02-14T21:03:35.919Z,18.35
2023-02-14T21:06:05.503Z,18.58
2023-02-14T21:08:32.985Z,19.48
2023-02-14T21:11:00.265Z,17.92
2023-02-14T21:13:27.402Z,19.83
2023-02-14T21:15:54.568Z,19.98
2023-02-14T21:18:21.778Z,19.80
2023-02-14T21:20:48.713Z,20.95
2023-02-14T21:23:17.099Z,18.75
2023-02-14T21:25:44.039Z,20.55
2023-02-14T21:28:11.232Z,19.92
2023-02-14T21:30:38.357Z,20.15
2023-02-14T21:33:05.246Z,20.48
2023-02-14T21:35:35.690Z,19.85
2023-02-14T21:38:02.594Z,21.13
2023-02-14T21:40:30.940Z,18.63
2023-02-14T21:42:57.908Z,20.25
2023-02-14T21:45:43.494Z,20.92
2023-02-14T21:48:28.756Z,20.45
2023-02-14T21:50:55.732Z,20.55
2023-02-14T21:53:22.771Z,17.85
2023-02-14T21:55:51.024Z,19.50
2023-02-14T21:58:17.956Z,20.45
2023-02-14T22:00:45.644Z,21.73
2023-02-14T22:03:13.246Z,19.55
2023-02-14T22:05:40.186Z,20.63
2023-02-14T22:08:07.069Z,20.60
2023-02-14T22:10:33.977Z,20.48
2023-02-14T22:13:02.288Z,20.08
2023-02-14T22:15:29.266Z,20.63
2023-02-14T22:17:56.156Z,21.35
2023-02-14T22:20:23.292Z,21.80
2023-02-14T22:22:50.202Z,19.63
2023-02-14T22:25:17.345Z,20.65
2023-02-14T22:27:44.280Z,20.55
2023-02-14T22:30:13.151Z,19.60
2023-02-14T22:32:41.650Z,19.20
2023-02-14T22:35:08.655Z,20.25
2023-02-14T22:37:35.546Z,19.60
2023-02-14T22:40:02.571Z,20.23
2023-02-14T22:42:29.631Z,19.05
2023-02-14T22:44:56.553Z,19.88
2023-02-14T22:47:24.881Z,20.52
2023-02-14T22:49:51.833Z,20.38
2023-02-14T22:52:18.710Z,21.15
2023-02-14T22:54:45.609Z,18.13
2023-02-14T22:57:12.541Z,19.15
2023-02-14T22:59:40.058Z,19.25
2023-02-14T23:02:07.152Z,20.08
2023-02-14T23:04:35.492Z,19.67
2023-02-14T23:07:02.401Z,19.38
2023-02-14T23:09:29.473Z,18.75
2023-02-14T23:11:56.581Z,18.67
2023-02-14T23:14:41.674Z,18.85
2023-02-14T23:17:14.861Z,19.25
2023-02-14T23:20:02.468Z,19.02
2023-02-14T23:22:31.158Z,19.58
2023-02-14T23:25:00.179Z,20.67
2023-02-14T23:27:31.640Z,18.50
2023-02-14T23:29:58.866Z,19.92
2023-02-14T23:32:26.118Z,20.25
2023-02-14T23:34:54.399Z,20.38
2023-02-14T23:37:21.533Z,19.45
2023-02-14T23:39:48.464Z,21.27
2023-02-14T23:42:16.205Z,19.38
2023-02-14T23:44:43.706Z,19.58
2023-02-14T23:47:11.349Z,19.02
2023-02-14T23:49:40.268Z,18.83
2023-02-14T23:52:11.477Z,20.17
2023-02-14T23:54:38.762Z,20.00
2023-02-14T23:57:07.422Z,18.73
2023-02-14T23:59:34.430Z,19.40
